Time,TemperatureF,DewpointF,PressureIn,WindDirection,WindDirectionDegrees,WindSpeedMPH,WindSpeedGustMPH,Humidity,HourlyPrecipIn,Conditions,Clouds,dailyrainin,SoftwareType,DateUTC
2013-04-27 00:02:00,46.5,36.9,30.12,SW,233,4.6,4.6,69,0.00,CLR,,0.00,WeatherDisplay:10.37,2013-04-27 07:02:00,
2013-04-27 00:07:00,46.6,36.6,30.12,SW,233,4.6,4.6,68,0.00,CLR,,0.00,WeatherDisplay:10.37,2013-04-27 07:07:00,
2013-04-27 00:12:00,47.0,36.6,30.12,SW,233,5.8,5.8,67,0.00,CLR,,0.00,WeatherDisplay:10.37,2013-04-27 07:12:00,
2013-04-27 00:18:00,47.7,36.5,30.11,SW,232,5.0,5.0,65,0.00,CLR,,0.00,WeatherDisplay:10.37,2013-04-27 07:18:00,
2013-04-27 00:23:00,48.6,36.6,30.11,SW,233,5.0,5.0,63,0.00,CLR,,0.00,WeatherDisplay:10.37,2013-04-27 07:23:00,
2013-04-27 00:28:00,49.0,36.1,30.11,SW,233,3.5,3.5,61,0.00,CLR,,0.00,WeatherDisplay:10.37,2013-04-27 07:28:00,
2013-04-27 00:33:00,49.3,36.0,30.11,SW,232,4.6,4.6,60,0.00,CLR,,0.00,WeatherDisplay:10.37,2013-04-27 07:33:00,
2013-04-27 00:38:00,49.6,36.7,30.10,SW,233,4.6,4.7,61,0.00,CLR,,0.00,WeatherDisplay:10.37,2013-04-27 07:38:00,
2013-04-27 00:43:00,49.4,36.5,30.10,SW,233,3.5,3.9,61,0.00,CLR,,0.00,WeatherDisplay:10.37,2013-04-27 07:43:00,
2013-04-27 00:48:00,48.6,36.6,30.11,SW,233,4.0,4.0,63,0.00,CLR,,0.00,WeatherDisplay:10.37,2013-04-27 07:48:00,
2013-04-27 00:53:00,47.9,36.3,30.11,SW,233,5.8,5.8,64,0.00,CLR,,0.00,WeatherDisplay:10.37,2013-04-27 07:53:00,
2013-04-27 00:58:00,47.6,36.4,30.11,SW,232,4.6,4.6,65,0.00,CLR,,0.00,WeatherDisplay:10.37,2013-04-27 07:58:00,
2013-04-27 01:03:00,48.3,36.3,30.10,SW,232,6.0,6.0,63,0.00,CLR,,0.00,WeatherDisplay:10.37,2013-04-27 08:03:00,
2013-04-27 01:08:00,49.1,36.2,30.09,SW,232,5.8,5.8,61,0.00,CLR,,0.00,WeatherDisplay:10.37,2013-04-27 08:08:00,
2013-04-27 01:13:00,49.5,35.8,30.09,SW,229,5.8,5.8,59,0.00,CLR,,0.00,WeatherDisplay:10.37,2013-04-27 08:13:00,
2013-04-27 01:18:00,49.6,36.3,30.09,SW,229,6.0,6.0,60,0.00,CLR,,0.00,WeatherDisplay:10.37,2013-04-27 08:18:00,
2013-04-27 01:23:00,49.2,35.9,30.09,SW,229,4.6,4.6,60,0.00,CLR,,0.00,WeatherDisplay:10.37,2013-04-27 08:23:00,
2013-04-27 01:28:00,49.0,35.3,30.09,SW,229,4.6,4.6,59,0.00,CLR,,0.00,WeatherDisplay:10.37,2013-04-27 08:28:00,
2013-04-27 01:33:00,49.4,35.2,30.09,SW,229,3.5,3.5,58,0.00,CLR,,0.00,WeatherDisplay:10.37,2013-04-27 08:33:00,
2013-04-27 01:38:00,49.9,34.8,30.09,SW,229,4.6,4.6,56,0.00,CLR,,0.00,WeatherDisplay:10.37,2013-04-27 08:38:00,
2013-04-27 01:43:00,50.4,34.8,30.09,SW,229,4.0,4.0,55,0.00,CLR,,0.00,WeatherDisplay:10.37,2013-04-27 08:43:00,
2013-04-27 01:48:00,50.5,34.9,30.09,SW,229,4.0,4.1,55,0.00,CLR,,0.00,WeatherDisplay:10.37,2013-04-27 08:48:00,
2013-04-27 01:53:00,50.6,34.6,30.08,SW,229,4.0,4.0,54,0.00,CLR,,0.00,WeatherDisplay:10.37,2013-04-27 08:53:00,
2013-04-27 01:58:00,50.9,34.4,30.08,SW,229,5.0,5.0,53,0.00,CLR,,0.00,WeatherDisplay:10.37,2013-04-27 08:58:00,
2013-04-27 02:03:00,51.5,34.4,30.07,SW,236,4.6,4.6,52,0.00,CLR,,0.00,WeatherDisplay:10.37,2013-04-27 09:03:00,
2013-04-27 02:08:00,51.1,34.1,30.08,SW,236,4.0,4.0,52,0.00,CLR,,0.00,WeatherDisplay:10.37,2013-04-27 09:08:00,
2013-04-27 02:13:00,51.0,34.0,30.08,WNW,282,4.6,4.6,52,0.00,CLR,,0.00,WeatherDisplay:10.37,2013-04-27 09:13:00,
2013-04-27 02:18:00,51.0,34.0,30.08,WNW,286,4.6,4.6,52,0.00,CLR,,0.00,WeatherDisplay:10.37,2013-04-27 09:18:00,
2013-04-27 02:23:00,51.0,34.5,30.08,WNW,286,2.3,2.3,53,0.00,CLR,,0.00,WeatherDisplay:10.37,2013-04-27 09:23:00,
2013-04-27 02:28:00,49.5,34.9,30.08,WNW,286,3.5,3.5,57,0.00,CLR,,0.00,WeatherDisplay:10.37,2013-04-27 09:28:00,
2013-04-27 02:33:00,49.3,34.3,30.09,WNW,286,4.0,4.0,56,0.00,CLR,,0.00,WeatherDisplay:10.37,2013-04-27 09:33:00,
2013-04-27 02:38:00,49.9,35.3,30.08,West,280,4.0,4.0,57,0.00,CLR,,0.00,WeatherDisplay:10.37,2013-04-27 09:38:00,
2013-04-27 02:43:00,51.2,35.6,30.08,West,281,5.0,5.0,55,0.00,CLR,,0.00,WeatherDisplay:10.37,2013-04-27 09:43:00,
2013-04-27 02:48:00,51.7,35.6,30.08,West,281,4.6,4.6,54,0.00,CLR,,0.00,WeatherDisplay:10.37,2013-04-27 09:48:00,
2013-04-27 02:54:00,50.5,35.4,30.08,West,280,6.0,6.0,56,0.00,CLR,,0.00,WeatherDisplay:10.37,2013-04-27 09:54:00,
2013-04-27 02:59:00,51.3,34.7,30.08,West,278,9.2,9.2,53,0.00,CLR,,0.00,WeatherDisplay:10.37,2013-04-27 09:59:00,
2013-04-27 03:04:00,51.5,34.9,30.07,West,272,6.9,6.9,53,0.00,CLR,,0.00,WeatherDisplay:10.37,2013-04-27 10:04:00,
2013-04-27 03:09:00,51.3,34.7,30.08,West,273,5.0,5.0,53,0.00,CLR,,0.00,WeatherDisplay:10.37,2013-04-27 10:09:00,
2013-04-27 03:14:00,51.8,34.2,30.07,West,273,5.8,5.8,51,0.00,CLR,,0.00,WeatherDisplay:10.37,2013-04-27 10:14:00,
2013-04-27 03:19:00,51.9,34.3,30.07,West,273,6.0,6.0,51,0.00,CLR,,0.00,WeatherDisplay:10.37,2013-04-27 10:19:00,
2013-04-27 03:24:00,51.8,33.7,30.07,West,273,6.0,6.0,50,0.00,CLR,,0.00,WeatherDisplay:10.37,2013-04-27 10:24:00,
2013-04-27 03:29:00,51.5,34.9,30.07,West,272,4.6,4.6,53,0.00,CLR,,0.00,WeatherDisplay:10.37,2013-04-27 10:29:00,
2013-04-27 03:34:00,50.5,34.5,30.08,West,273,3.5,3.5,54,0.00,CLR,,0.00,WeatherDisplay:10.37,2013-04-27 10:34:00,
2013-04-27 03:39:00,50.6,33.6,30.08,West,272,6.0,6.0,52,0.00,CLR,,0.00,WeatherDisplay:10.37,2013-04-27 10:39:00,
2013-04-27 03:44:00,51.5,33.5,30.07,West,273,5.8,5.8,50,0.00,CLR,,0.00,WeatherDisplay:10.37,2013-04-27 10:44:00,
2013-04-27 03:49:00,50.9,33.9,30.08,WSW,247,5.0,5.0,52,0.00,CLR,,0.00,WeatherDisplay:10.37,2013-04-27 10:49:00,
2013-04-27 03:54:00,49.5,33.5,30.08,SW,227,6.0,6.0,54,0.00,CLR,,0.00,WeatherDisplay:10.37,2013-04-27 10:54:00,
2013-04-27 03:59:00,48.3,33.3,30.09,WSW,246,5.0,5.0,56,0.00,CLR,,0.00,WeatherDisplay:10.37,2013-04-27 10:59:00,
2013-04-27 04:04:00,47.8,33.7,30.08,SW,230,7.0,7.0,58,0.00,CLR,,0.00,WeatherDisplay:10.37,2013-04-27 11:04:00,
2013-04-27 04:09:00,47.5,33.9,30.09,SW,217,5.8,5.8,59,0.00,CLR,,0.00,WeatherDisplay:10.37,2013-04-27 11:09:00,
2013-04-27 04:14:00,47.5,33.4,30.09,SW,219,6.9,6.9,58,0.00,CLR,,0.00,WeatherDisplay:10.37,2013-04-27 11:14:00,
2013-04-27 04:19:00,48.3,33.8,30.09,SW,220,6.9,6.9,57,0.00,CLR,,0.00,WeatherDisplay:10.37,2013-04-27 11:19:00,
2013-04-27 04:24:00,48.2,33.7,30.09,SW,221,5.0,5.1,57,0.00,CLR,,0.00,WeatherDisplay:10.37,2013-04-27 11:24:00,
2013-04-27 04:29:00,47.6,34.0,30.09,SW,223,6.0,6.0,59,0.00,CLR,,0.00,WeatherDisplay:10.37,2013-04-27 11:29:00,
2013-04-27 04:34:00,46.9,33.7,30.08,SW,229,9.2,9.2,60,0.00,CLR,,0.00,WeatherDisplay:10.37,2013-04-27 11:34:00,
2013-04-27 04:39:00,46.9,33.7,30.08,SW,231,9.2,9.2,60,0.00,CLR,,0.00,WeatherDisplay:10.37,2013-04-27 11:39:00,
2013-04-27 04:44:00,46.9,33.7,30.09,SW,230,8.1,8.1,60,0.00,CLR,,0.00,WeatherDisplay:10.37,2013-04-27 11:44:00,
2013-04-27 04:49:00,47.2,33.6,30.09,SW,231,7.0,7.0,59,0.00,CLR,,0.00,WeatherDisplay:10.37,2013-04-27 11:49:00,
2013-04-27 04:54:00,47.1,33.5,30.09,SW,231,6.0,6.0,59,0.00,CLR,,0.00,WeatherDisplay:10.37,2013-04-27 11:54:00,
2013-04-27 04:59:00,47.4,33.4,30.10,SW,231,5.8,5.8,58,0.00,CLR,,0.00,WeatherDisplay:10.37,2013-04-27 11:59:00,
2013-04-27 05:04:00,47.5,33.9,30.09,SW,231,9.2,9.2,59,0.00,CLR,,0.00,WeatherDisplay:10.37,2013-04-27 12:04:00,
2013-04-27 05:10:00,46.7,33.5,30.09,SW,231,5.0,5.0,60,0.00,CLR,,0.00,WeatherDisplay:10.37,2013-04-27 12:10:00,
2013-04-27 05:15:00,46.0,33.3,30.10,SW,230,5.8,5.8,61,0.00,CLR,,0.00,WeatherDisplay:10.37,2013-04-27 12:15:00,
2013-04-27 05:20:00,45.8,33.1,30.10,SW,231,5.0,5.0,61,0.00,CLR,,0.00,WeatherDisplay:10.37,2013-04-27 12:20:00,
2013-04-27 05:25:00,46.6,33.0,30.10,SW,231,5.0,5.0,59,0.00,CLR,,0.00,WeatherDisplay:10.37,2013-04-27 12:25:00,
2013-04-27 05:30:00,47.1,33.1,30.09,SW,231,3.5,4.0,58,0.00,CLR,,0.00,WeatherDisplay:10.37,2013-04-27 12:30:00,
2013-04-27 05:35:00,46.7,32.7,30.10,SW,231,6.0,6.0,58,0.00,CLR,,0.00,WeatherDisplay:10.37,2013-04-27 12:35:00,
2013-04-27 05:40:00,46.4,32.8,30.10,SW,230,5.0,5.2,59,0.00,CLR,,0.00,WeatherDisplay:10.37,2013-04-27 12:40:00,
2013-04-27 05:45:00,46.1,32.6,30.10,SW,231,5.8,5.8,59,0.00,CLR,,0.00,WeatherDisplay:10.37,2013-04-27 12:45:00,
2013-04-27 05:50:00,46.2,32.7,30.11,SW,230,5.8,5.8,59,0.00,CLR,,0.00,WeatherDisplay:10.37,2013-04-27 12:50:00,
2013-04-27 05:55:00,46.6,32.6,30.10,SW,229,7.0,7.0,58,0.00,CLR,,0.00,WeatherDisplay:10.37,2013-04-27 12:55:00,
2013-04-27 06:00:00,46.8,33.2,30.11,SW,231,7.0,7.0,59,0.00,CLR,,0.00,WeatherDisplay:10.37,2013-04-27 13:00:00,
2013-04-27 06:05:00,46.7,33.5,30.11,SW,236,7.0,7.0,60,0.00,CLR,,0.00,WeatherDisplay:10.37,2013-04-27 13:05:00,
2013-04-27 06:10:00,47.5,33.9,30.11,SW,236,9.2,9.2,59,0.00,CLR,,0.00,WeatherDisplay:10.37,2013-04-27 13:10:00,
2013-04-27 06:15:00,48.8,33.8,30.10,WSW,237,8.1,8.1,56,0.00,CLR,,0.00,WeatherDisplay:10.37,2013-04-27 13:15:00,
2013-04-27 06:20:00,49.6,34.1,30.10,WSW,238,6.9,6.9,55,0.00,CLR,,0.00,WeatherDisplay:10.37,2013-04-27 13:20:00,
2013-04-27 06:25:00,50.7,33.2,30.09,SW,232,11.5,11.5,51,0.00,CLR,,0.00,WeatherDisplay:10.37,2013-04-27 13:25:00,
2013-04-27 06:30:00,51.4,32.9,30.09,WSW,244,10.4,10.4,49,0.00,CLR,,0.00,WeatherDisplay:10.37,2013-04-27 13:30:00,
2013-04-27 06:35:00,51.4,33.9,30.09,WSW,239,6.9,6.9,51,0.00,CLR,,0.00,WeatherDisplay:10.37,2013-04-27 13:35:00,
2013-04-27 06:40:00,51.1,34.1,30.09,WSW,239,6.9,6.9,52,0.00,CLR,,0.00,WeatherDisplay:10.37,2013-04-27 13:40:00,
2013-04-27 06:48:00,49.4,35.2,30.10,SSW,212,9.2,9.2,58,0.00,CLR,,0.00,WeatherDisplay:10.37,2013-04-27 13:48:00,
2013-04-27 06:53:00,49.6,35.4,30.10,SW,216,10.4,10.4,58,0.00,CLR,,0.00,WeatherDisplay:10.37,2013-04-27 13:53:00,
2013-04-27 06:58:00,49.6,35.0,30.10,SW,225,10.4,10.4,57,0.00,CLR,,0.00,WeatherDisplay:10.37,2013-04-27 13:58:00,
2013-04-27 07:03:00,49.6,35.0,30.11,SW,233,11.0,11.0,57,0.00,CLR,,0.00,WeatherDisplay:10.37,2013-04-27 14:03:00,
2013-04-27 07:08:00,50.7,34.6,30.10,WSW,242,11.5,11.5,54,0.00,CLR,,0.00,WeatherDisplay:10.37,2013-04-27 14:08:00,
2013-04-27 07:13:00,52.7,33.0,30.09,WSW,239,15.0,15.0,47,0.00,CLR,,0.00,WeatherDisplay:10.37,2013-04-27 14:13:00,
2013-04-27 07:18:00,53.6,33.3,30.09,SW,234,13.8,13.8,46,0.00,CLR,,0.00,WeatherDisplay:10.37,2013-04-27 14:18:00,
2013-04-27 07:23:00,54.0,32.6,30.09,SW,235,16.1,16.1,44,0.00,CLR,,0.00,WeatherDisplay:10.37,2013-04-27 14:23:00,
2013-04-27 07:28:00,54.2,32.7,30.09,SW,235,16.1,16.1,44,0.00,CLR,,0.00,WeatherDisplay:10.37,2013-04-27 14:28:00,
2013-04-27 07:33:00,54.6,33.1,30.08,WSW,248,17.3,17.3,44,0.00,CLR,,0.00,WeatherDisplay:10.37,2013-04-27 14:33:00,
2013-04-27 07:38:00,54.4,33.5,30.09,WSW,250,15.0,15.0,45,0.00,CLR,,0.00,WeatherDisplay:10.37,2013-04-27 14:38:00,
2013-04-27 07:43:00,54.6,33.7,30.08,WSW,246,11.5,11.5,45,0.00,CLR,,0.00,WeatherDisplay:10.37,2013-04-27 14:43:00,
2013-04-27 07:48:00,55.2,32.5,30.08,SW,235,16.1,16.1,42,0.00,CLR,,0.00,WeatherDisplay:10.37,2013-04-27 14:48:00,
2013-04-27 07:53:00,55.6,32.8,30.08,WSW,241,15.0,15.0,42,0.00,CLR,,0.00,WeatherDisplay:10.37,2013-04-27 14:53:00,
2013-04-27 07:58:00,55.6,32.8,30.08,WSW,249,13.0,13.0,42,0.00,CLR,,0.00,WeatherDisplay:10.37,2013-04-27 14:58:00,
2013-04-27 08:03:00,55.8,33.0,30.09,WSW,240,13.0,13.0,42,0.00,CLR,,0.00,WeatherDisplay:10.37,2013-04-27 15:03:00,
2013-04-27 08:08:00,55.9,34.8,30.10,SW,221,11.5,11.5,45,0.00,CLR,,0.00,WeatherDisplay:10.37,2013-04-27 15:08:00,
2013-04-27 08:13:00,54.4,37.1,30.10,SW,227,11.5,11.5,52,0.00,CLR,,0.00,WeatherDisplay:10.37,2013-04-27 15:13:00,
2013-04-27 08:18:00,53.9,37.1,30.10,SW,231,9.2,9.2,53,0.00,CLR,,0.00,WeatherDisplay:10.37,2013-04-27 15:18:00,
2013-04-27 08:23:00,54.4,37.6,30.10,SW,236,8.1,8.1,53,0.00,CLR,,0.00,WeatherDisplay:10.37,2013-04-27 15:23:00,
2013-04-27 08:28:00,55.0,37.7,30.10,SW,223,6.9,6.9,52,0.00,CLR,,0.00,WeatherDisplay:10.37,2013-04-27 15:28:00,
2013-04-27 08:33:00,55.8,33.6,30.10,WSW,242,11.5,11.5,43,0.00,CLR,,0.00,WeatherDisplay:10.37,2013-04-27 15:33:00,
2013-04-27 08:38:00,56.9,34.0,30.10,West,265,17.3,17.3,42,0.00,CLR,,0.00,WeatherDisplay:10.37,2013-04-27 15:38:00,
2013-04-27 08:43:00,57.3,33.8,30.10,West,269,13.0,13.0,41,0.00,CLR,,0.00,WeatherDisplay:10.37,2013-04-27 15:43:00,
2013-04-27 08:48:00,57.7,33.5,30.09,WSW,248,13.8,13.8,40,0.00,CLR,,0.00,WeatherDisplay:10.37,2013-04-27 15:48:00,
2013-04-27 08:53:00,58.2,33.3,30.09,WSW,246,16.1,16.1,39,0.00,CLR,,0.00,WeatherDisplay:10.37,2013-04-27 15:53:00,
2013-04-27 08:58:00,58.2,32.7,30.09,WSW,251,16.1,16.1,38,0.00,CLR,,0.00,WeatherDisplay:10.37,2013-04-27 15:58:00,
2013-04-27 09:03:00,58.4,33.5,30.09,West,259,17.3,17.3,39,0.00,CLR,,0.00,WeatherDisplay:10.37,2013-04-27 16:03:00,
2013-04-27 09:08:00,58.6,33.0,30.09,West,275,16.1,16.1,38,0.00,CLR,,0.00,WeatherDisplay:10.37,2013-04-27 16:08:00,
2013-04-27 09:13:00,58.6,33.0,30.09,West,265,17.3,17.3,38,0.00,CLR,,0.00,WeatherDisplay:10.37,2013-04-27 16:13:00,
2013-04-27 09:19:00,58.9,32.7,30.09,West,273,18.4,18.4,37,0.00,CLR,,0.00,WeatherDisplay:10.37,2013-04-27 16:19:00,
2013-04-27 09:24:00,58.8,33.2,30.09,WSW,244,18.0,18.0,38,0.00,CLR,,0.00,WeatherDisplay:10.37,2013-04-27 16:24:00,
2013-04-27 09:29:00,59.0,33.4,30.09,WSW,246,13.8,13.8,38,0.00,CLR,,0.00,WeatherDisplay:10.37,2013-04-27 16:29:00,
2013-04-27 09:34:00,58.9,32.0,30.09,West,280,15.0,15.0,36,0.00,CLR,,0.00,WeatherDisplay:10.37,2013-04-27 16:34:00,
2013-04-27 09:39:00,59.0,32.7,30.09,WSW,257,12.7,12.7,37,0.00,CLR,,0.00,WeatherDisplay:10.37,2013-04-27 16:39:00,
2013-04-27 09:44:00,59.0,32.1,30.09,West,261,13.8,13.8,36,0.00,CLR,,0.00,WeatherDisplay:10.37,2013-04-27 16:44:00,
2013-04-27 09:49:00,59.0,33.4,30.09,WNW,290,13.8,13.8,38,0.00,CLR,,0.00,WeatherDisplay:10.37,2013-04-27 16:49:00,
2013-04-27 09:54:00,59.0,34.7,30.09,WSW,256,12.7,12.7,40,0.00,CLR,,0.00,WeatherDisplay:10.37,2013-04-27 16:54:00,
2013-04-27 09:59:00,59.0,33.4,30.09,West,275,20.0,20.0,38,0.00,CLR,,0.00,WeatherDisplay:10.37,2013-04-27 16:59:00,
2013-04-27 10:04:00,59.1,32.8,30.11,West,272,21.9,21.9,37,0.00,CLR,,0.00,WeatherDisplay:10.37,2013-04-27 17:04:00,
2013-04-27 10:09:00,59.1,32.8,30.11,West,273,21.9,21.9,37,0.00,CLR,,0.00,WeatherDisplay:10.37,2013-04-27 17:09:00,
2013-04-27 10:14:00,59.1,36.0,30.11,West,273,13.8,13.8,42,0.00,CLR,,0.00,WeatherDisplay:10.37,2013-04-27 17:14:00,
2013-04-27 10:19:00,59.2,35.5,30.11,West,279,17.3,17.3,41,0.00,CLR,,0.00,WeatherDisplay:10.37,2013-04-27 17:19:00,
2013-04-27 10:24:00,59.0,34.1,30.11,West,273,19.6,19.6,39,0.00,CLR,,0.00,WeatherDisplay:10.37,2013-04-27 17:24:00,
2013-04-27 10:29:00,59.2,34.2,30.11,West,270,19.6,19.6,39,0.00,CLR,,0.00,WeatherDisplay:10.37,2013-04-27 17:29:00,
2013-04-27 10:34:00,59.5,34.5,30.10,West,273,23.0,23.0,39,0.00,CLR,,0.00,WeatherDisplay:10.37,2013-04-27 17:34:00,
2013-04-27 10:39:00,59.8,34.8,30.10,West,261,26.5,26.5,39,0.00,CLR,,0.00,WeatherDisplay:10.37,2013-04-27 17:39:00,
2013-04-27 10:44:00,59.9,36.1,30.10,West,276,18.4,18.4,41,0.00,CLR,,0.00,WeatherDisplay:10.37,2013-04-27 17:44:00,
2013-04-27 10:49:00,60.1,35.0,30.11,West,277,21.0,21.0,39,0.00,CLR,,0.00,WeatherDisplay:10.37,2013-04-27 17:49:00,
2013-04-27 10:54:00,60.2,35.1,30.10,West,273,15.0,15.0,39,0.00,CLR,,0.00,WeatherDisplay:10.37,2013-04-27 17:54:00,
2013-04-27 10:59:00,60.1,33.7,30.10,West,263,25.0,25.0,37,0.00,CLR,,0.00,WeatherDisplay:10.37,2013-04-27 17:59:00,
2013-04-27 11:04:00,59.7,34.0,30.12,WNW,286,17.3,17.3,38,0.00,CLR,,0.00,WeatherDisplay:10.37,2013-04-27 18:04:00,
2013-04-27 11:09:00,60.1,33.7,30.12,West,263,20.7,20.7,37,0.00,CLR,,0.00,WeatherDisplay:10.37,2013-04-27 18:09:00,
2013-04-27 11:14:00,60.1,37.5,30.11,West,279,17.3,17.3,43,0.00,CLR,,0.00,WeatherDisplay:10.37,2013-04-27 18:14:00,
2013-04-27 11:19:00,60.0,35.0,30.11,WSW,257,17.0,17.0,39,0.00,CLR,,0.00,WeatherDisplay:10.37,2013-04-27 18:19:00,
2013-04-27 11:24:00,59.9,34.9,30.11,West,281,16.1,16.1,39,0.00,CLR,,0.00,WeatherDisplay:10.37,2013-04-27 18:24:00,
2013-04-27 11:29:00,59.8,34.8,30.11,West,272,21.9,21.9,39,0.00,CLR,,0.00,WeatherDisplay:10.37,2013-04-27 18:29:00,
2013-04-27 11:34:00,59.8,34.1,30.11,West,265,21.9,21.9,38,0.00,CLR,,0.00,WeatherDisplay:10.37,2013-04-27 18:34:00,
2013-04-27 11:39:00,60.2,34.5,30.11,West,273,19.6,19.6,38,0.00,CLR,,0.00,WeatherDisplay:10.37,2013-04-27 18:39:00,
2013-04-27 11:44:00,60.6,34.2,30.10,West,261,19.6,19.6,37,0.00,CLR,,0.00,WeatherDisplay:10.37,2013-04-27 18:44:00,
2013-04-27 11:49:00,60.7,33.6,30.09,WSW,258,19.6,19.6,36,0.00,CLR,,0.00,WeatherDisplay:10.37,2013-04-27 18:49:00,
2013-04-27 11:54:00,60.9,34.4,30.09,West,278,20.7,20.7,37,0.00,CLR,,0.00,WeatherDisplay:10.37,2013-04-27 18:54:00,
2013-04-27 11:59:00,60.9,34.4,30.09,West,273,18.4,18.4,37,0.00,CLR,,0.00,WeatherDisplay:10.37,2013-04-27 18:59:00,
2013-04-27 12:04:00,61.2,34.0,30.09,West,267,20.7,20.7,36,0.00,CLR,,0.00,WeatherDisplay:10.37,2013-04-27 19:04:00,
2013-04-27 12:09:00,61.7,33.7,30.08,WSW,252,25.3,25.3,35,0.00,CLR,,0.00,WeatherDisplay:10.37,2013-04-27 19:09:00,
2013-04-27 12:14:00,61.8,34.5,30.08,West,268,17.0,17.0,36,0.00,CLR,,0.00,WeatherDisplay:10.37,2013-04-27 19:14:00,
2013-04-27 12:19:00,62.3,35.0,30.08,West,267,16.1,16.1,36,0.00,CLR,,0.00,WeatherDisplay:10.37,2013-04-27 19:19:00,
2013-04-27 12:24:00,62.2,33.5,30.07,West,270,18.4,18.4,34,0.00,CLR,,0.00,WeatherDisplay:10.37,2013-04-27 19:24:00,
2013-04-27 12:29:00,62.8,31.7,30.07,WNW,286,25.3,25.3,31,0.00,CLR,,0.00,WeatherDisplay:10.37,2013-04-27 19:29:00,
2013-04-27 12:34:00,62.4,32.9,30.07,WSW,255,19.0,19.0,33,0.00,CLR,,0.00,WeatherDisplay:10.37,2013-04-27 19:34:00,
2013-04-27 12:39:00,62.5,32.2,30.07,West,268,19.6,19.6,32,0.00,CLR,,0.00,WeatherDisplay:10.37,2013-04-27 19:39:00,
2013-04-27 12:44:00,62.4,32.1,30.06,West,263,19.6,19.6,32,0.00,CLR,,0.00,WeatherDisplay:10.37,2013-04-27 19:44:00,
2013-04-27 12:49:00,62.3,33.6,30.06,WSW,254,19.6,19.6,34,0.00,CLR,,0.00,WeatherDisplay:10.37,2013-04-27 19:49:00,
2013-04-27 12:54:00,62.7,33.2,30.06,West,265,19.6,19.6,33,0.00,CLR,,0.00,WeatherDisplay:10.37,2013-04-27 19:54:00,
2013-04-27 12:59:00,62.8,34.0,30.04,WNW,284,21.9,21.9,34,0.00,CLR,,0.00,WeatherDisplay:10.37,2013-04-27 19:59:00,
2013-04-27 13:04:00,63.0,33.4,30.04,WSW,257,23.0,23.0,33,0.00,SCT,,0.00,WeatherDisplay:10.37,2013-04-27 20:04:00,
2013-04-27 13:09:00,63.1,32.7,30.04,West,267,21.9,21.9,32,0.00,SCT,,0.00,WeatherDisplay:10.37,2013-04-27 20:09:00,
2013-04-27 13:14:00,63.4,33.8,30.04,West,278,21.0,21.0,33,0.00,SCT,,0.00,WeatherDisplay:10.37,2013-04-27 20:14:00,
2013-04-27 13:19:00,63.6,33.9,30.04,West,270,19.6,19.6,33,0.00,SCT,,0.00,WeatherDisplay:10.37,2013-04-27 20:19:00,
2013-04-27 13:24:00,63.6,34.7,30.04,SW,229,18.0,18.0,34,0.00,SCT,,0.00,WeatherDisplay:10.37,2013-04-27 20:24:00,
2013-04-27 13:29:00,63.8,33.4,30.04,West,273,25.3,25.3,32,0.00,SCT,,0.00,WeatherDisplay:10.37,2013-04-27 20:29:00,
2013-04-27 13:34:00,63.9,32.6,30.03,West,277,26.5,26.5,31,0.00,SCT,,0.00,WeatherDisplay:10.37,2013-04-27 20:34:00,
2013-04-27 13:39:00,64.1,34.4,30.03,West,262,23.0,23.0,33,0.00,SCT,,0.00,WeatherDisplay:10.37,2013-04-27 20:39:00,
2013-04-27 13:44:00,64.2,33.7,30.03,West,271,27.6,27.6,32,0.00,SCT,,0.00,WeatherDisplay:10.37,2013-04-27 20:44:00,
2013-04-27 13:49:00,64.4,36.8,30.03,NW,314,9.2,9.2,36,0.00,SCT,,0.00,WeatherDisplay:10.37,2013-04-27 20:49:00,
2013-04-27 13:54:00,65.3,39.7,30.02,NW,322,10.4,10.4,39,0.00,SCT,,0.00,WeatherDisplay:10.37,2013-04-27 20:54:00,
2013-04-27 13:59:00,65.6,40.6,30.02,West,281,11.5,11.5,40,0.00,SCT,,0.00,WeatherDisplay:10.37,2013-04-27 20:59:00,
2013-04-27 14:04:00,65.2,39.6,30.03,North,5,9.2,9.2,39,0.00,BKN,,0.00,WeatherDisplay:10.37,2013-04-27 21:04:00,
2013-04-27 14:09:00,64.7,39.8,30.03,WNW,283,9.0,9.0,40,0.00,BKN,,0.00,WeatherDisplay:10.37,2013-04-27 21:09:00,
2013-04-27 14:14:00,64.3,40.1,30.04,NW,321,4.6,4.6,41,0.00,BKN,,0.00,WeatherDisplay:10.37,2013-04-27 21:14:00,
2013-04-27 14:19:00,64.1,40.5,30.04,NW,314,4.6,4.6,42,0.00,BKN,,0.00,WeatherDisplay:10.37,2013-04-27 21:19:00,
2013-04-27 14:24:00,64.0,40.4,30.04,WNW,303,5.8,5.8,42,0.00,BKN,,0.00,WeatherDisplay:10.37,2013-04-27 21:24:00,
2013-04-27 14:29:00,63.8,39.6,30.03,WNW,290,8.1,8.1,41,0.00,BKN,,0.00,WeatherDisplay:10.37,2013-04-27 21:29:00,
2013-04-27 14:34:00,63.8,39.6,30.03,NNW,336,3.5,3.5,41,0.00,BKN,,0.00,WeatherDisplay:10.37,2013-04-27 21:34:00,
2013-04-27 14:39:00,63.9,39.7,30.03,WNW,296,2.3,2.3,41,0.00,BKN,,0.00,WeatherDisplay:10.37,2013-04-27 21:39:00,
2013-04-27 14:44:00,64.1,39.3,30.03,NW,318,6.9,6.9,40,0.00,BKN,,0.00,WeatherDisplay:10.37,2013-04-27 21:44:00,
2013-04-27 14:49:00,64.3,39.4,30.03,NNW,339,5.0,5.0,40,0.00,BKN,,0.00,WeatherDisplay:10.37,2013-04-27 21:49:00,
2013-04-27 14:54:00,64.5,38.3,30.02,NW,319,6.9,6.9,38,0.00,BKN,,0.00,WeatherDisplay:10.37,2013-04-27 21:54:00,
2013-04-27 14:59:00,64.4,38.2,30.03,NW,308,6.9,6.9,38,0.00,BKN,,0.00,WeatherDisplay:10.37,2013-04-27 21:59:00,
2013-04-27 15:05:00,64.4,37.5,30.03,WNW,295,5.8,5.8,37,0.00,SCT,,0.00,WeatherDisplay:10.37,2013-04-27 22:05:00,
2013-04-27 15:10:00,64.2,37.4,30.03,NW,326,5.8,5.8,37,0.00,SCT,,0.00,WeatherDisplay:10.37,2013-04-27 22:10:00,
2013-04-27 15:15:00,64.4,38.2,30.03,WNW,302,3.5,3.5,38,0.00,SCT,,0.00,WeatherDisplay:10.37,2013-04-27 22:15:00,
2013-04-27 15:20:00,64.5,38.3,30.03,NW,311,4.0,4.0,38,0.00,SCT,,0.00,WeatherDisplay:10.37,2013-04-27 22:20:00,
2013-04-27 15:25:00,64.4,37.5,30.03,NW,318,3.5,3.5,37,0.00,SCT,,0.00,WeatherDisplay:10.37,2013-04-27 22:25:00,
2013-04-27 15:30:00,64.1,37.3,30.03,NW,323,3.5,3.5,37,0.00,SCT,,0.00,WeatherDisplay:10.37,2013-04-27 22:30:00,
2013-04-27 15:35:00,63.8,36.3,30.02,NNW,335,8.1,8.1,36,0.00,SCT,,0.00,WeatherDisplay:10.37,2013-04-27 22:35:00,
2013-04-27 15:40:00,62.8,36.1,30.03,NW,315,10.4,10.4,37,0.00,SCT,,0.00,WeatherDisplay:10.37,2013-04-27 22:40:00,
2013-04-27 15:45:00,62.5,36.5,30.03,NW,316,3.5,3.5,38,0.00,SCT,,0.00,WeatherDisplay:10.37,2013-04-27 22:45:00,
2013-04-27 15:50:00,62.1,37.5,30.04,WNW,284,8.1,8.1,40,0.00,SCT,,0.00,WeatherDisplay:10.37,2013-04-27 22:50:00,
2013-04-27 15:55:00,61.7,37.7,30.03,West,265,11.5,11.5,41,0.00,SCT,,0.00,WeatherDisplay:10.37,2013-04-27 22:55:00,
2013-04-27 16:00:00,61.0,34.5,30.04,West,281,17.3,17.3,37,0.00,SCT,,0.00,WeatherDisplay:10.37,2013-04-27 23:00:00,
2013-04-27 16:05:00,60.8,35.0,30.04,West,271,10.4,10.4,38,0.00,OVC,,0.00,WeatherDisplay:10.37,2013-04-27 23:05:00,
2013-04-27 16:10:00,60.5,35.4,30.03,West,272,5.8,5.8,39,0.00,OVC,,0.00,WeatherDisplay:10.37,2013-04-27 23:10:00,
2013-04-27 16:15:00,60.4,35.3,30.04,West,263,2.3,2.3,39,0.00,OVC,,0.00,WeatherDisplay:10.37,2013-04-27 23:15:00,
2013-04-27 16:20:00,60.5,35.4,30.03,North,349,3.5,3.5,39,0.00,OVC,,0.00,WeatherDisplay:10.37,2013-04-27 23:20:00,
2013-04-27 16:25:00,60.5,34.1,30.03,West,281,25.0,25.0,37,0.00,OVC,,0.00,WeatherDisplay:10.37,2013-04-27 23:25:00,
2013-04-27 16:30:00,59.9,34.2,30.04,West,268,13.8,13.8,38,0.00,OVC,,0.00,WeatherDisplay:10.37,2013-04-27 23:30:00,
2013-04-27 16:35:00,59.5,34.5,30.05,West,280,11.5,11.5,39,0.00,OVC,,0.00,WeatherDisplay:10.37,2013-04-27 23:35:00,
2013-04-27 16:40:00,59.5,35.1,30.05,NW,311,3.5,3.5,40,0.00,OVC,,0.00,WeatherDisplay:10.37,2013-04-27 23:40:00,
2013-04-27 16:45:00,59.5,34.5,30.04,WNW,296,5.8,5.8,39,0.00,OVC,,0.00,WeatherDisplay:10.37,2013-04-27 23:45:00,
2013-04-27 16:50:00,59.7,34.0,30.03,NNW,330,18.4,18.4,38,0.00,OVC,,0.00,WeatherDisplay:10.37,2013-04-27 23:50:00,
2013-04-27 16:55:00,60.0,34.3,30.03,West,271,19.6,19.6,38,0.00,OVC,,0.00,WeatherDisplay:10.37,2013-04-27 23:55:00,
2013-04-27 17:00:00,59.8,34.1,30.04,West,268,13.0,13.0,38,0.00,OVC,,0.00,WeatherDisplay:10.37,2013-04-28 00:00:00,
2013-04-27 17:05:00,59.1,34.8,30.05,WNW,283,15.0,15.0,40,0.00,OVC,,0.00,WeatherDisplay:10.37,2013-04-28 00:05:00,
2013-04-27 17:10:00,59.0,34.1,30.05,WNW,286,10.4,10.4,39,0.00,OVC,,0.00,WeatherDisplay:10.37,2013-04-28 00:10:00,
2013-04-27 17:15:00,59.0,35.3,30.05,West,279,13.8,13.8,41,0.00,OVC,,0.00,WeatherDisplay:10.37,2013-04-28 00:15:00,
2013-04-27 17:20:00,58.8,34.5,30.05,West,279,23.0,23.0,40,0.00,OVC,,0.00,WeatherDisplay:10.37,2013-04-28 00:20:00,
2013-04-27 17:25:00,58.8,34.5,30.05,WNW,292,18.4,18.4,40,0.00,OVC,,0.00,WeatherDisplay:10.37,2013-04-28 00:25:00,
2013-04-27 17:30:00,58.6,35.6,30.05,WNW,289,29.0,29.0,42,0.00,OVC,,0.00,WeatherDisplay:10.37,2013-04-28 00:30:00,
2013-04-27 17:35:00,57.7,37.0,30.05,West,280,16.1,16.1,46,0.00,OVC,,0.00,WeatherDisplay:10.37,2013-04-28 00:35:00,
2013-04-27 17:40:00,57.4,36.2,30.05,SW,227,23.0,23.0,45,0.00,OVC,,0.00,WeatherDisplay:10.37,2013-04-28 00:40:00,
2013-04-27 17:45:00,57.3,37.2,30.05,WNW,295,13.8,13.8,47,0.00,OVC,,0.00,WeatherDisplay:10.37,2013-04-28 00:45:00,
2013-04-27 17:50:00,56.7,36.1,30.04,WSW,252,31.1,31.1,46,0.00,OVC,,0.00,WeatherDisplay:10.37,2013-04-28 00:50:00,
2013-04-27 17:55:00,56.7,35.0,30.04,SW,235,34.5,34.5,44,0.00,OVC,,0.00,WeatherDisplay:10.37,2013-04-28 00:55:00,
2013-04-27 18:00:00,55.8,36.9,30.03,West,266,19.6,19.6,49,0.00,OVC,,0.00,WeatherDisplay:10.37,2013-04-28 01:00:00,
2013-04-27 18:05:00,55.5,37.7,30.02,West,275,9.2,9.2,51,0.00,BKN,,0.00,WeatherDisplay:10.37,2013-04-28 01:05:00,
2013-04-27 18:11:00,55.6,36.7,30.03,West,280,11.5,11.5,49,0.00,BKN,,0.00,WeatherDisplay:10.37,2013-04-28 01:11:00,
2013-04-27 18:16:00,55.6,37.7,30.04,WNW,290,9.0,9.0,51,0.00,BKN,,0.00,WeatherDisplay:10.37,2013-04-28 01:16:00,
2013-04-27 18:21:00,55.7,36.8,30.04,West,276,31.1,31.1,49,0.00,BKN,,0.00,WeatherDisplay:10.37,2013-04-28 01:21:00,
2013-04-27 18:26:00,56.2,35.7,30.03,West,261,19.6,19.6,46,0.00,BKN,,0.00,WeatherDisplay:10.37,2013-04-28 01:26:00,
2013-04-27 18:31:00,56.1,35.6,30.04,West,281,15.0,15.0,46,0.00,BKN,,0.00,WeatherDisplay:10.37,2013-04-28 01:31:00,
2013-04-27 18:36:00,55.8,37.4,30.03,WNW,290,17.3,17.3,50,0.00,BKN,,0.00,WeatherDisplay:10.37,2013-04-28 01:36:00,
2013-04-27 18:41:00,55.5,37.1,30.03,NW,307,9.0,9.0,50,0.00,BKN,,0.00,WeatherDisplay:10.37,2013-04-28 01:41:00,
2013-04-27 18:46:00,55.9,35.4,30.03,WNW,290,27.6,27.6,46,0.00,BKN,,0.00,WeatherDisplay:10.37,2013-04-28 01:46:00,
2013-04-27 18:51:00,56.7,33.8,30.03,WNW,298,31.1,31.1,42,0.00,BKN,,0.00,WeatherDisplay:10.37,2013-04-28 01:51:00,
2013-04-27 18:56:00,57.2,33.7,30.02,WNW,301,25.3,25.3,41,0.00,BKN,,0.00,WeatherDisplay:10.37,2013-04-28 01:56:00,
2013-04-27 19:01:00,57.4,33.9,30.00,WNW,284,23.0,23.0,41,0.00,OVC,,0.00,WeatherDisplay:10.37,2013-04-28 02:01:00,
2013-04-27 19:06:00,57.5,32.7,30.00,WNW,284,24.2,24.2,39,0.00,OVC,,0.00,WeatherDisplay:10.37,2013-04-28 02:06:00,
2013-04-27 19:11:00,57.5,34.0,29.99,WNW,291,24.2,24.2,41,0.00,OVC,,0.00,WeatherDisplay:10.37,2013-04-28 02:11:00,
2013-04-27 19:16:00,57.7,33.5,29.98,West,269,34.5,34.5,40,0.00,OVC,,0.00,WeatherDisplay:10.37,2013-04-28 02:16:00,
2013-04-27 19:21:00,57.8,33.0,29.98,WNW,291,27.6,27.6,39,0.00,OVC,,0.00,WeatherDisplay:10.37,2013-04-28 02:21:00,
2013-04-27 19:26:00,57.8,32.3,29.99,WNW,286,28.0,28.0,38,0.00,OVC,,0.00,WeatherDisplay:10.37,2013-04-28 02:26:00,
2013-04-27 19:31:00,57.7,32.2,29.99,West,281,26.0,26.0,38,0.00,OVC,,0.00,WeatherDisplay:10.37,2013-04-28 02:31:00,
2013-04-27 19:36:00,57.7,32.9,29.99,WSW,257,27.0,27.0,39,0.00,OVC,,0.00,WeatherDisplay:10.37,2013-04-28 02:36:00,
2013-04-27 19:41:00,57.7,32.2,29.99,West,276,29.9,29.9,38,0.00,OVC,,0.00,WeatherDisplay:10.37,2013-04-28 02:41:00,
2013-04-27 19:46:00,57.5,32.1,30.00,West,271,31.1,31.1,38,0.00,OVC,,0.00,WeatherDisplay:10.37,2013-04-28 02:46:00,
2013-04-27 19:51:00,57.5,32.1,29.99,WNW,287,20.7,20.7,38,0.00,OVC,,0.00,WeatherDisplay:10.37,2013-04-28 02:51:00,
2013-04-27 19:56:00,57.3,32.5,30.00,West,273,26.5,26.5,39,0.00,OVC,,0.00,WeatherDisplay:10.37,2013-04-28 02:56:00,
2013-04-27 20:01:00,57.2,32.4,29.99,West,276,27.6,27.6,39,0.00,OVC,,0.00,WeatherDisplay:10.37,2013-04-28 03:01:00,
2013-04-27 20:06:00,57.0,31.6,29.99,WNW,286,26.5,26.5,38,0.00,OVC,,0.00,WeatherDisplay:10.37,2013-04-28 03:06:00,
2013-04-27 20:11:00,56.7,32.6,29.99,WNW,282,18.0,18.0,40,0.00,OVC,,0.00,WeatherDisplay:10.37,2013-04-28 03:11:00,
2013-04-27 20:16:00,56.6,31.9,30.00,WNW,291,24.2,24.2,39,0.00,OVC,,0.00,WeatherDisplay:10.37,2013-04-28 03:16:00,
2013-04-27 20:21:00,56.5,31.8,30.00,West,280,20.7,20.7,39,0.00,OVC,,0.00,WeatherDisplay:10.37,2013-04-28 03:21:00,
2013-04-27 20:26:00,56.5,32.4,30.00,WNW,293,21.9,21.9,40,0.00,OVC,,0.00,WeatherDisplay:10.37,2013-04-28 03:26:00,
2013-04-27 20:31:00,56.3,32.3,30.00,WNW,295,20.7,20.7,40,0.00,OVC,,0.00,WeatherDisplay:10.37,2013-04-28 03:31:00,
2013-04-27 20:36:00,56.2,32.8,30.01,WNW,286,11.5,11.5,41,0.00,OVC,,0.00,WeatherDisplay:10.37,2013-04-28 03:36:00,
2013-04-27 20:41:00,55.8,33.0,30.01,WNW,298,6.9,6.9,42,0.00,OVC,,0.00,WeatherDisplay:10.37,2013-04-28 03:41:00,
2013-04-27 20:46:00,55.3,33.2,30.02,NW,306,7.0,7.0,43,0.00,OVC,,0.00,WeatherDisplay:10.37,2013-04-28 03:46:00,
2013-04-27 20:51:00,54.9,33.4,30.02,WNW,297,11.0,11.0,44,0.00,OVC,,0.00,WeatherDisplay:10.37,2013-04-28 03:51:00,
2013-04-27 20:56:00,54.5,33.6,30.02,WNW,300,6.9,6.9,45,0.00,OVC,,0.00,WeatherDisplay:10.37,2013-04-28 03:56:00,
2013-04-27 21:01:00,54.3,33.9,30.02,NW,306,12.7,12.7,46,0.00,OVC,,0.00,WeatherDisplay:10.37,2013-04-28 04:01:00,
2013-04-27 21:06:00,54.2,33.9,30.03,WNW,300,6.9,6.9,46,0.00,OVC,,0.00,WeatherDisplay:10.37,2013-04-28 04:06:00,
2013-04-27 21:11:00,54.1,33.8,30.03,NW,305,6.9,6.9,46,0.00,OVC,,0.00,WeatherDisplay:10.37,2013-04-28 04:11:00,
2013-04-27 21:16:00,54.1,34.3,30.03,West,278,27.0,27.0,47,0.00,OVC,,0.00,WeatherDisplay:10.37,2013-04-28 04:16:00,
2013-04-27 21:21:00,53.7,36.0,30.03,NW,304,15.0,15.0,51,0.00,OVC,,0.00,WeatherDisplay:10.37,2013-04-28 04:21:00,
2013-04-27 21:27:00,52.8,36.1,30.03,WNW,292,16.1,16.1,53,0.00,OVC,,0.00,WeatherDisplay:10.37,2013-04-28 04:27:00,
2013-04-27 21:32:00,52.4,35.8,30.03,WNW,286,9.2,9.2,53,0.00,OVC,,0.00,WeatherDisplay:10.37,2013-04-28 04:32:00,
2013-04-27 21:37:00,52.3,35.7,30.03,WNW,298,11.5,11.5,53,0.00,OVC,,0.00,WeatherDisplay:10.37,2013-04-28 04:37:00,
2013-04-27 21:42:00,52.3,35.7,30.03,North,351,16.1,16.1,53,0.00,OVC,,0.00,WeatherDisplay:10.37,2013-04-28 04:42:00,
2013-04-27 21:47:00,52.2,36.0,30.03,NW,325,10.4,10.4,54,0.00,OVC,,0.00,WeatherDisplay:10.37,2013-04-28 04:47:00,
2013-04-27 21:52:00,52.1,35.9,30.03,NW,316,10.4,10.4,54,0.00,OVC,,0.00,WeatherDisplay:10.37,2013-04-28 04:52:00,
2013-04-27 21:57:00,52.0,35.9,30.04,WNW,298,7.0,7.0,54,0.00,OVC,,0.00,WeatherDisplay:10.37,2013-04-28 04:57:00,
2013-04-27 22:02:00,52.0,36.8,30.03,NW,306,8.0,8.0,56,0.00,-RA,,0.00,WeatherDisplay:10.37,2013-04-28 05:02:00,
2013-04-27 22:07:00,51.7,36.5,30.03,NW,315,8.1,8.1,56,0.00,-RA,,0.00,WeatherDisplay:10.37,2013-04-28 05:07:00,
2013-04-27 22:12:00,51.5,36.8,30.03,West,273,33.4,33.4,57,0.00,-RA,,0.00,WeatherDisplay:10.37,2013-04-28 05:12:00,
2013-04-27 22:17:00,50.4,37.4,30.03,West,281,28.8,28.8,61,0.00,-RA,,0.00,WeatherDisplay:10.37,2013-04-28 05:17:00,
2013-04-27 22:22:00,50.5,37.1,30.03,WNW,288,28.0,28.0,60,0.00,-RA,,0.00,WeatherDisplay:10.37,2013-04-28 05:22:00,
2013-04-27 22:27:00,50.3,36.9,30.02,West,270,28.8,28.8,60,0.00,-RA,,0.00,WeatherDisplay:10.37,2013-04-28 05:27:00,
2013-04-27 22:32:00,50.9,37.1,30.02,West,275,21.0,21.0,59,0.00,-RA,,0.00,WeatherDisplay:10.37,2013-04-28 05:32:00,
2013-04-27 22:37:00,50.9,36.6,30.01,West,265,21.9,21.9,58,0.00,-RA,,0.00,WeatherDisplay:10.37,2013-04-28 05:37:00,
2013-04-27 22:42:00,51.0,36.3,30.01,WSW,253,19.6,19.6,57,0.00,-RA,,0.00,WeatherDisplay:10.37,2013-04-28 05:42:00,
2013-04-27 22:47:00,51.0,35.8,30.01,WSW,257,15.0,15.0,56,0.00,-RA,,0.00,WeatherDisplay:10.37,2013-04-28 05:47:00,
2013-04-27 22:52:00,50.9,35.7,30.01,WSW,250,19.6,19.6,56,0.00,-RA,,0.00,WeatherDisplay:10.37,2013-04-28 05:52:00,
2013-04-27 22:57:00,51.1,36.4,30.01,West,260,11.5,11.5,57,0.00,-RA,,0.00,WeatherDisplay:10.37,2013-04-28 05:57:00,
2013-04-27 23:02:00,51.0,36.3,30.01,West,272,15.0,15.0,57,0.00,BKN,,0.00,WeatherDisplay:10.37,2013-04-28 06:02:00,
2013-04-27 23:07:00,50.9,35.7,30.01,West,276,15.0,15.0,56,0.00,BKN,,0.00,WeatherDisplay:10.37,2013-04-28 06:07:00,
2013-04-27 23:12:00,50.8,35.7,30.01,West,276,12.0,12.0,56,0.00,BKN,,0.00,WeatherDisplay:10.37,2013-04-28 06:12:00,
2013-04-27 23:17:00,51.0,35.4,30.00,West,276,17.3,17.3,55,0.00,BKN,,0.00,WeatherDisplay:10.37,2013-04-28 06:17:00,
2013-04-27 23:22:00,51.4,35.3,30.00,West,278,13.8,13.8,54,0.00,BKN,,0.00,WeatherDisplay:10.37,2013-04-28 06:22:00,
2013-04-27 23:27:00,51.3,35.7,30.01,West,276,12.7,12.7,55,0.00,BKN,,0.00,WeatherDisplay:10.37,2013-04-28 06:27:00,
2013-04-27 23:32:00,51.0,35.8,30.01,West,270,4.6,4.6,56,0.00,BKN,,0.00,WeatherDisplay:10.37,2013-04-28 06:32:00,
2013-04-27 23:37:00,50.8,35.7,30.01,West,269,2.3,2.3,56,0.00,BKN,,0.00,WeatherDisplay:10.37,2013-04-28 06:37:00,
2013-04-27 23:42:00,50.5,35.8,30.01,West,270,3.5,3.5,57,0.00,BKN,,0.00,WeatherDisplay:10.37,2013-04-28 06:42:00,
2013-04-27 23:47:00,50.3,36.1,30.02,West,270,1.1,1.1,58,0.00,BKN,,0.00,WeatherDisplay:10.37,2013-04-28 06:47:00,
2013-04-27 23:53:00,49.9,36.1,30.02,NW,304,1.1,1.1,59,0.00,BKN,,0.00,WeatherDisplay:10.37,2013-04-28 06:53:00,
2013-04-27 23:58:00,49.6,36.3,30.02,NW,305,0.0,0.0,60,0.00,BKN,,0.00,WeatherDisplay:10.37,2013-04-28 06:58:00,